Time,TemperatureF,DewpointF,PressureIn,WindDirection,WindDirectionDegrees,WindSpeedMPH,WindSpeedGustMPH,Humidity,HourlyPrecipIn,Conditions,Clouds,dailyrainin,SoftwareType,DateUTC
2013-02-20 03:51:00,37.1,22.8,29.88,WNW,291,17.0,20.0,56,0.00,,,0.00,Wunderground v.1.15,2013-02-20 08:51:00,
2013-02-20 03:52:00,37.0,23.2,29.88,WNW,291,24.0,24.0,57,0.00,,,0.00,Wunderground v.1.15,2013-02-20 08:52:00,
2013-02-20 03:57:00,37.0,23.6,29.88,WNW,288,23.0,24.0,58,0.00,,,0.00,Wunderground v.1.15,2013-02-20 08:57:00,
2013-02-20 04:02:00,36.9,24.3,29.88,WNW,295,20.0,21.0,60,0.00,,,0.00,Wunderground v.1.15,2013-02-20 09:02:00,
2013-02-20 04:07:00,36.6,24.0,29.89,NW,304,19.0,25.0,60,0.00,,,0.00,Wunderground v.1.15,2013-02-20 09:07:00,
2013-02-20 04:13:00,36.2,24.8,29.89,NW,314,18.0,22.0,63,0.00,,,0.00,Wunderground v.1.15,2013-02-20 09:13:00,
2013-02-20 04:18:00,36.0,24.6,29.90,NW,305,15.0,25.0,63,0.00,,,0.00,Wunderground v.1.15,2013-02-20 09:18:00,
2013-02-20 04:24:00,35.9,23.7,29.90,NW,308,18.0,21.0,61,0.00,,,0.00,Wunderground v.1.15,2013-02-20 09:24:00,
2013-02-20 04:29:00,35.8,24.4,29.90,WNW,297,14.0,21.0,63,0.00,,,0.00,Wunderground v.1.15,2013-02-20 09:29:00,
2013-02-20 04:35:00,35.7,25.4,29.90,NW,304,16.0,18.0,66,0.00,,,0.00,Wunderground v.1.15,2013-02-20 09:35:00,
2013-02-20 04:40:00,35.6,24.6,29.90,NW,315,17.0,18.0,64,0.00,,,0.00,Wunderground v.1.15,2013-02-20 09:40:00,
2013-02-20 04:45:00,35.7,24.7,29.90,WNW,302,11.0,20.0,64,0.00,,,0.00,Wunderground v.1.15,2013-02-20 09:45:00,
2013-02-20 04:51:00,35.6,24.6,29.90,WNW,295,15.0,20.0,64,0.00,,,0.00,Wunderground v.1.15,2013-02-20 09:51:00,
2013-02-20 04:56:00,35.5,21.8,29.91,WNW,291,18.0,21.0,57,0.00,,,0.00,Wunderground v.1.15,2013-02-20 09:56:00,
2013-02-20 05:01:00,35.4,21.2,29.91,WNW,296,15.0,17.0,56,0.00,,,0.00,Wunderground v.1.15,2013-02-20 10:01:00,
2013-02-20 05:07:00,35.3,22.8,29.91,NW,312,15.0,17.0,60,0.00,,,0.00,Wunderground v.1.15,2013-02-20 10:07:00,
2013-02-20 05:12:00,35.1,21.8,29.91,NW,315,13.0,15.0,58,0.00,,,0.00,Wunderground v.1.15,2013-02-20 10:12:00,
2013-02-20 05:18:00,35.0,22.9,29.91,NW,316,16.0,19.0,61,0.00,,,0.00,Wunderground v.1.15,2013-02-20 10:18:00,
2013-02-20 05:23:00,34.8,21.5,29.91,NW,318,13.0,17.0,58,0.00,,,0.00,Wunderground v.1.15,2013-02-20 10:23:00,
2013-02-20 05:28:00,34.7,21.4,29.92,NW,317,13.0,17.0,58,0.00,,,0.00,Wunderground v.1.15,2013-02-20 10:28:00,
2013-02-20 05:34:00,34.6,22.1,29.92,NNW,333,15.0,17.0,60,0.00,,,0.00,Wunderground v.1.15,2013-02-20 10:34:00,
2013-02-20 05:39:00,34.5,20.8,29.92,NW,315,14.0,18.0,57,0.00,,,0.00,Wunderground v.1.15,2013-02-20 10:39:00,
2013-02-20 05:45:00,34.4,21.5,29.92,NW,312,16.0,18.0,59,0.00,,,0.00,Wunderground v.1.15,2013-02-20 10:45:00,
2013-02-20 05:50:00,34.4,21.5,29.92,WNW,300,16.0,18.0,59,0.00,,,0.00,Wunderground v.1.15,2013-02-20 10:50:00,
2013-02-20 05:56:00,34.3,22.2,29.92,WNW,302,16.0,17.0,61,0.00,,,0.00,Wunderground v.1.15,2013-02-20 10:56:00,
2013-02-20 06:01:00,34.4,22.7,29.93,WNW,302,14.0,15.0,62,0.00,,,0.00,Wunderground v.1.15,2013-02-20 11:01:00,
2013-02-20 06:06:00,34.4,23.5,29.93,NW,310,19.0,21.0,64,0.00,,,0.00,Wunderground v.1.15,2013-02-20 11:06:00,
2013-02-20 06:11:00,34.4,21.1,29.93,NW,315,17.0,17.0,58,0.00,,,0.00,Wunderground v.1.15,2013-02-20 11:11:00,
2013-02-20 06:17:00,34.4,21.5,29.94,WNW,300,16.0,21.0,59,0.00,,,0.00,Wunderground v.1.15,2013-02-20 11:17:00,
2013-02-20 06:22:00,34.3,22.2,29.94,WNW,296,14.0,17.0,61,0.00,,,0.00,Wunderground v.1.15,2013-02-20 11:22:00,
2013-02-20 06:27:00,34.2,23.3,29.94,WNW,300,14.0,17.0,64,0.00,,,0.00,Wunderground v.1.15,2013-02-20 11:27:00,
2013-02-20 06:33:00,34.1,22.0,29.94,WNW,291,15.0,15.0,61,0.00,,,0.00,Wunderground v.1.15,2013-02-20 11:33:00,
2013-02-20 06:38:00,34.0,21.6,29.95,WNW,295,12.0,17.0,60,0.00,,,0.00,Wunderground v.1.15,2013-02-20 11:38:00,
2013-02-20 06:44:00,34.0,22.0,29.95,NW,308,17.0,17.0,61,0.00,,,0.00,Wunderground v.1.15,2013-02-20 11:44:00,
2013-02-20 06:49:00,34.0,22.0,29.95,WNW,298,17.0,21.0,61,0.00,,,0.00,Wunderground v.1.15,2013-02-20 11:49:00,
2013-02-20 06:54:00,34.0,20.3,29.95,NW,312,18.0,18.0,57,0.00,,,0.00,Wunderground v.1.15,2013-02-20 11:54:00,
2013-02-20 06:59:00,33.9,21.9,29.96,WNW,295,19.0,19.0,61,0.00,,,0.00,Wunderground v.1.15,2013-02-20 11:59:00,
2013-02-20 07:05:00,33.8,21.4,29.96,WNW,296,18.0,22.0,60,0.00,,,0.00,Wunderground v.1.15,2013-02-20 12:05:00,
2013-02-20 07:10:00,33.6,20.8,29.96,WNW,287,15.0,18.0,59,0.00,,,0.00,Wunderground v.1.15,2013-02-20 12:10:00,
2013-02-20 07:15:00,33.5,19.5,29.97,WNW,295,23.0,26.0,56,0.00,,,0.00,Wunderground v.1.15,2013-02-20 12:15:00,
2013-02-20 07:22:00,33.5,19.9,29.97,WNW,290,23.0,25.0,57,0.00,,,0.00,Wunderground v.1.15,2013-02-20 12:22:00,
2013-02-20 07:28:00,33.3,18.9,29.97,WNW,297,19.0,26.0,55,0.00,,,0.00,Wunderground v.1.15,2013-02-20 12:28:00,
2013-02-20 07:33:00,33.3,18.0,29.97,WNW,293,18.0,24.0,53,0.00,,,0.00,Wunderground v.1.15,2013-02-20 12:33:00,
2013-02-20 07:38:00,33.2,19.2,29.98,WNW,288,18.0,25.0,56,0.00,,,0.00,Wunderground v.1.15,2013-02-20 12:38:00,
2013-02-20 07:44:00,33.2,19.6,29.98,WNW,287,15.0,25.0,57,0.00,,,0.00,Wunderground v.1.15,2013-02-20 12:44:00,
2013-02-20 07:49:00,33.1,18.7,29.99,WNW,302,19.0,25.0,55,0.00,,,0.00,Wunderground v.1.15,2013-02-20 12:49:00,
2013-02-20 07:54:00,33.1,19.1,29.99,NW,304,17.0,19.0,56,0.00,,,0.00,Wunderground v.1.15,2013-02-20 12:54:00,
2013-02-20 07:59:00,33.0,18.1,29.99,WNW,300,15.0,19.0,54,0.00,,,0.00,Wunderground v.1.15,2013-02-20 12:59:00,
2013-02-20 08:05:00,33.0,19.8,29.99,WNW,301,18.0,21.0,58,0.00,,,0.00,Wunderground v.1.15,2013-02-20 13:05:00,
2013-02-20 08:10:00,33.0,18.6,29.99,WNW,301,20.0,20.0,55,0.00,,,0.00,Wunderground v.1.15,2013-02-20 13:10:00,
2013-02-20 08:15:00,33.0,21.8,29.99,WNW,297,16.0,24.0,63,0.00,,,0.00,Wunderground v.1.15,2013-02-20 13:15:00,
2013-02-20 08:21:00,32.8,19.6,29.99,NW,325,14.0,19.0,58,0.00,,,0.00,Wunderground v.1.15,2013-02-20 13:21:00,
2013-02-20 08:26:00,32.7,19.5,29.99,NW,311,22.0,25.0,58,0.00,,,0.00,Wunderground v.1.15,2013-02-20 13:26:00,
2013-02-20 08:31:00,32.6,19.8,29.99,WNW,300,18.0,20.0,59,0.00,,,0.00,Wunderground v.1.15,2013-02-20 13:31:00,
2013-02-20 08:37:00,32.7,21.1,29.99,WNW,293,17.0,23.0,62,0.00,,,0.00,Wunderground v.1.15,2013-02-20 13:37:00,
2013-02-20 08:42:00,32.5,19.3,29.99,NW,304,24.0,24.0,58,0.00,,,0.00,Wunderground v.1.15,2013-02-20 13:42:00,
2013-02-20 08:48:00,32.5,18.5,29.99,WNW,297,17.0,25.0,56,0.00,,,0.00,Wunderground v.1.15,2013-02-20 13:48:00,
2013-02-20 08:53:00,32.6,20.2,30.00,West,280,12.0,19.0,60,0.00,,,0.00,Wunderground v.1.15,2013-02-20 13:53:00,
2013-02-20 08:58:00,32.7,20.7,30.00,WNW,296,16.0,19.0,61,0.00,,,0.00,Wunderground v.1.15,2013-02-20 13:58:00,
2013-02-20 09:04:00,32.8,21.2,29.99,WNW,294,18.0,18.0,62,0.00,,,0.00,Wunderground v.1.15,2013-02-20 14:04:00,
2013-02-20 09:09:00,32.8,19.6,30.00,WNW,298,13.0,18.0,58,0.00,,,0.00,Wunderground v.1.15,2013-02-20 14:09:00,
2013-02-20 09:14:00,32.6,19.4,30.00,NW,312,21.0,23.0,58,0.00,,,0.00,Wunderground v.1.15,2013-02-20 14:14:00,
2013-02-20 09:19:00,32.5,18.9,30.00,WNW,291,19.0,23.0,57,0.00,,,0.00,Wunderground v.1.15,2013-02-20 14:19:00,
2013-02-20 09:25:00,32.4,18.4,29.99,WNW,293,17.0,22.0,56,0.00,,,0.00,Wunderground v.1.15,2013-02-20 14:25:00,
2013-02-20 09:30:00,32.4,20.8,29.99,NW,308,22.0,22.0,62,0.00,,,0.00,Wunderground v.1.15,2013-02-20 14:30:00,
2013-02-20 09:35:00,32.4,19.7,30.00,WNW,298,16.0,20.0,59,0.00,,,0.00,Wunderground v.1.15,2013-02-20 14:35:00,
2013-02-20 09:41:00,32.5,21.3,29.99,WNW,290,15.0,20.0,63,0.00,,,0.00,Wunderground v.1.15,2013-02-20 14:41:00,
2013-02-20 09:46:00,32.3,18.3,29.99,WNW,293,16.0,18.0,56,0.00,,,0.00,Wunderground v.1.15,2013-02-20 14:46:00,
2013-02-20 09:52:00,32.3,18.3,29.99,WNW,288,20.0,20.0,56,0.00,,,0.00,Wunderground v.1.15,2013-02-20 14:52:00,
2013-02-20 09:57:00,32.4,19.7,30.00,WNW,300,15.0,18.0,59,0.00,,,0.00,Wunderground v.1.15,2013-02-20 14:57:00,
2013-02-20 10:02:00,32.4,19.3,30.00,NW,307,16.0,16.0,58,0.00,,,0.00,Wunderground v.1.15,2013-02-20 15:02:00,
2013-02-20 10:08:00,32.4,18.8,30.00,WNW,290,16.0,19.0,57,0.00,,,0.00,Wunderground v.1.15,2013-02-20 15:08:00,
2013-02-20 10:13:00,32.4,18.8,30.00,WNW,298,15.0,16.0,57,0.00,,,0.00,Wunderground v.1.15,2013-02-20 15:13:00,
2013-02-20 10:18:00,32.6,19.8,30.00,WNW,297,18.0,21.0,59,0.00,,,0.00,Wunderground v.1.15,2013-02-20 15:18:00,
2013-02-20 10:24:00,32.5,18.5,30.01,WNW,285,17.0,23.0,56,0.00,,,0.00,Wunderground v.1.15,2013-02-20 15:24:00,
2013-02-20 10:29:00,32.5,20.5,30.00,WNW,285,20.0,25.0,61,0.00,,,0.00,Wunderground v.1.15,2013-02-20 15:29:00,
2013-02-20 10:35:00,32.5,19.7,30.00,WNW,294,21.0,23.0,59,0.00,,,0.00,Wunderground v.1.15,2013-02-20 15:35:00,
2013-02-20 10:40:00,32.3,19.2,30.00,WNW,298,22.0,34.0,58,0.00,,,0.00,Wunderground v.1.15,2013-02-20 15:40:00,
2013-02-20 10:45:00,32.4,19.3,30.01,NW,305,18.0,27.0,58,0.00,,,0.00,Wunderground v.1.15,2013-02-20 15:45:00,
2013-02-20 10:50:00,32.3,18.3,30.00,WNW,294,22.0,27.0,56,0.00,,,0.00,Wunderground v.1.15,2013-02-20 15:50:00,
2013-02-20 10:56:00,32.5,19.7,30.00,WNW,300,21.0,30.0,59,0.00,,,0.00,Wunderground v.1.15,2013-02-20 15:56:00,
2013-02-20 11:01:00,32.5,20.9,30.00,WNW,295,19.0,22.0,62,0.00,,,0.00,Wunderground v.1.15,2013-02-20 16:01:00,
2013-02-20 11:06:00,32.7,18.7,30.01,WNW,293,20.0,22.0,56,0.00,,,0.00,Wunderground v.1.15,2013-02-20 16:06:00,
2013-02-20 11:12:00,32.7,19.5,30.01,WNW,285,18.0,19.0,58,0.00,,,0.00,Wunderground v.1.15,2013-02-20 16:12:00,
2013-02-20 11:17:00,32.7,17.4,30.01,WNW,298,14.0,21.0,53,0.00,,,0.00,Wunderground v.1.15,2013-02-20 16:17:00,
2013-02-20 11:22:00,32.8,20.8,30.01,WNW,302,20.0,20.0,61,0.00,,,0.00,Wunderground v.1.15,2013-02-20 16:22:00,
2013-02-20 11:28:00,32.9,18.9,30.01,NW,307,14.0,21.0,56,0.00,,,0.00,Wunderground v.1.15,2013-02-20 16:28:00,
2013-02-20 11:33:00,32.8,17.1,30.01,NW,314,15.0,18.0,52,0.00,,,0.00,Wunderground v.1.15,2013-02-20 16:33:00,
2013-02-20 11:39:00,32.9,18.9,30.01,WNW,295,17.0,19.0,56,0.00,,,0.00,Wunderground v.1.15,2013-02-20 16:39:00,
2013-02-20 11:45:00,33.2,18.8,30.00,WNW,296,18.0,21.0,55,0.00,,,0.00,Wunderground v.1.15,2013-02-20 16:45:00,
2013-02-20 11:50:00,33.4,19.8,30.00,WNW,285,19.0,23.0,57,0.00,,,0.00,Wunderground v.1.15,2013-02-20 16:50:00,
2013-02-20 11:56:00,33.3,18.4,30.00,WNW,293,22.0,22.0,54,0.00,,,0.00,Wunderground v.1.15,2013-02-20 16:56:00,
2013-02-20 12:01:00,33.5,19.0,30.00,WNW,290,19.0,20.0,55,0.00,,,0.00,Wunderground v.1.15,2013-02-20 17:01:00,
2013-02-20 12:06:00,33.6,20.4,30.00,WNW,285,16.0,24.0,58,0.00,,,0.00,Wunderground v.1.15,2013-02-20 17:06:00,
2013-02-20 12:12:00,33.7,20.5,30.00,WNW,293,12.0,18.0,58,0.00,,,0.00,Wunderground v.1.15,2013-02-20 17:12:00,
2013-02-20 12:18:00,33.9,20.7,30.00,WNW,295,16.0,18.0,58,0.00,,,0.00,Wunderground v.1.15,2013-02-20 17:18:00,
2013-02-20 12:23:00,33.7,18.8,30.00,WNW,290,18.0,18.0,54,0.00,,,0.00,Wunderground v.1.15,2013-02-20 17:23:00,
2013-02-20 12:28:00,33.7,19.2,30.00,WNW,291,20.0,25.0,55,0.00,,,0.00,Wunderground v.1.15,2013-02-20 17:28:00,
2013-02-20 12:33:00,33.8,20.2,29.99,WNW,284,12.0,18.0,57,0.00,,,0.00,Wunderground v.1.15,2013-02-20 17:33:00,
2013-02-20 12:39:00,33.6,20.4,29.99,NW,316,16.0,18.0,58,0.00,,,0.00,Wunderground v.1.15,2013-02-20 17:39:00,
2013-02-20 12:44:00,33.5,19.5,29.99,WNW,298,12.0,14.0,56,0.00,,,0.00,Wunderground v.1.15,2013-02-20 17:44:00,
2013-02-20 12:50:00,33.5,20.3,29.98,WNW,293,10.0,16.0,58,0.00,,,0.00,Wunderground v.1.15,2013-02-20 17:50:00,
2013-02-20 12:55:00,33.6,20.4,29.98,WNW,300,13.0,13.0,58,0.00,,,0.00,Wunderground v.1.15,2013-02-20 17:55:00,
2013-02-20 13:00:00,33.8,20.2,29.98,West,271,16.0,16.0,57,0.00,,,0.00,Wunderground v.1.15,2013-02-20 18:00:00,
2013-02-20 13:06:00,33.9,19.4,29.98,West,274,14.0,19.0,55,0.00,,,0.00,Wunderground v.1.15,2013-02-20 18:06:00,
2013-02-20 13:11:00,34.0,19.1,29.98,West,278,14.0,16.0,54,0.00,,,0.00,Wunderground v.1.15,2013-02-20 18:11:00,
2013-02-20 13:16:00,34.3,21.8,29.98,WNW,287,16.0,19.0,60,0.00,,,0.00,Wunderground v.1.15,2013-02-20 18:16:00,
2013-02-20 13:22:00,34.2,19.3,29.98,West,278,18.0,18.0,54,0.00,,,0.00,Wunderground v.1.15,2013-02-20 18:22:00,
2013-02-20 13:27:00,34.2,19.7,29.98,West,278,21.0,26.0,55,0.00,,,0.00,Wunderground v.1.15,2013-02-20 18:27:00,
2013-02-20 13:34:00,34.2,18.8,29.98,West,280,17.0,20.0,53,0.00,,,0.00,Wunderground v.1.15,2013-02-20 18:34:00,
2013-02-20 13:39:00,34.1,19.6,29.98,NW,307,22.0,25.0,55,0.00,,,0.00,Wunderground v.1.15,2013-02-20 18:39:00,
2013-02-20 13:44:00,34.1,18.7,29.99,WNW,291,19.0,24.0,53,0.00,,,0.00,Wunderground v.1.15,2013-02-20 18:44:00,
2013-02-20 13:50:00,34.1,19.6,29.98,WNW,300,24.0,24.0,55,0.00,,,0.00,Wunderground v.1.15,2013-02-20 18:50:00,
2013-02-20 13:55:00,34.0,20.8,29.98,WNW,288,15.0,24.0,58,0.00,,,0.00,Wunderground v.1.15,2013-02-20 18:55:00,
2013-02-20 14:00:00,34.1,20.9,29.99,WNW,300,21.0,21.0,58,0.00,,,0.00,Wunderground v.1.15,2013-02-20 19:00:00,
2013-02-20 14:06:00,34.1,20.0,29.99,WNW,301,18.0,22.0,56,0.00,,,0.00,Wunderground v.1.15,2013-02-20 19:06:00,
2013-02-20 14:11:00,34.2,19.7,29.98,WNW,285,19.0,19.0,55,0.00,,,0.00,Wunderground v.1.15,2013-02-20 19:11:00,
2013-02-20 14:17:00,34.3,20.2,29.98,NW,316,21.0,26.0,56,0.00,,,0.00,Wunderground v.1.15,2013-02-20 19:17:00,
2013-02-20 14:22:00,34.2,20.1,29.98,WNW,293,21.0,21.0,56,0.00,,,0.00,Wunderground v.1.15,2013-02-20 19:22:00,
2013-02-20 14:28:00,34.4,19.5,29.98,WNW,294,16.0,21.0,54,0.00,,,0.00,Wunderground v.1.15,2013-02-20 19:28:00,
2013-02-20 14:33:00,34.4,20.7,29.98,WNW,300,23.0,23.0,57,0.00,,,0.00,Wunderground v.1.15,2013-02-20 19:33:00,
2013-02-20 14:39:00,34.4,20.3,29.98,WNW,287,20.0,23.0,56,0.00,,,0.00,Wunderground v.1.15,2013-02-20 19:39:00,
2013-02-20 14:45:00,34.7,20.6,29.98,WNW,302,16.0,20.0,56,0.00,,,0.00,Wunderground v.1.15,2013-02-20 19:45:00,
2013-02-20 14:50:00,34.9,20.8,29.98,WNW,293,20.0,26.0,56,0.00,,,0.00,Wunderground v.1.15,2013-02-20 19:50:00,
2013-02-20 14:55:00,34.9,20.8,29.98,NW,307,21.0,21.0,56,0.00,,,0.00,Wunderground v.1.15,2013-02-20 19:55:00,
2013-02-20 15:01:00,35.2,20.6,29.98,WNW,285,16.0,19.0,55,0.00,,,0.00,Wunderground v.1.15,2013-02-20 20:01:00,
2013-02-20 15:06:00,35.4,20.8,29.98,WNW,287,17.0,23.0,55,0.00,,,0.00,Wunderground v.1.15,2013-02-20 20:06:00,
2013-02-20 15:12:00,35.3,22.0,29.98,WNW,300,14.0,19.0,58,0.00,,,0.00,Wunderground v.1.15,2013-02-20 20:12:00,
2013-02-20 15:18:00,35.6,23.9,29.98,WNW,285,16.0,19.0,62,0.00,,,0.00,Wunderground v.1.15,2013-02-20 20:18:00,
2013-02-20 15:23:00,35.3,20.7,29.98,NW,304,18.0,18.0,55,0.00,,,0.00,Wunderground v.1.15,2013-02-20 20:23:00,
2013-02-20 15:29:00,35.5,22.2,29.98,NW,307,20.0,23.0,58,0.00,,,0.00,Wunderground v.1.15,2013-02-20 20:29:00,
2013-02-20 15:34:00,35.7,21.5,29.98,NW,306,21.0,21.0,56,0.00,,,0.00,Wunderground v.1.15,2013-02-20 20:34:00,
2013-02-20 15:39:00,35.7,20.7,29.99,WNW,296,19.0,23.0,54,0.00,,,0.00,Wunderground v.1.15,2013-02-20 20:39:00,
2013-02-20 15:45:00,35.7,20.2,29.99,WNW,296,17.0,20.0,53,0.00,,,0.00,Wunderground v.1.15,2013-02-20 20:45:00,
2013-02-20 15:50:00,36.0,21.8,29.99,WNW,297,16.0,24.0,56,0.00,,,0.00,Wunderground v.1.15,2013-02-20 20:50:00,
2013-02-20 15:55:00,36.1,21.9,29.99,NW,321,22.0,22.0,56,0.00,,,0.00,Wunderground v.1.15,2013-02-20 20:55:00,
2013-02-20 16:01:00,36.1,21.0,30.00,WNW,300,18.0,20.0,54,0.00,,,0.00,Wunderground v.1.15,2013-02-20 21:01:00,
2013-02-20 16:06:00,36.0,20.9,30.00,NW,315,18.0,20.0,54,0.00,,,0.00,Wunderground v.1.15,2013-02-20 21:06:00,
2013-02-20 16:11:00,36.2,19.3,30.00,WNW,290,20.0,20.0,50,0.00,,,0.00,Wunderground v.1.15,2013-02-20 21:11:00,
2013-02-20 16:17:00,36.1,19.2,30.00,NW,306,14.0,21.0,50,0.00,,,0.00,Wunderground v.1.15,2013-02-20 21:17:00,
2013-02-20 16:22:00,36.0,20.5,30.01,WNW,302,19.0,19.0,53,0.00,,,0.00,Wunderground v.1.15,2013-02-20 21:22:00,
2013-02-20 16:28:00,35.9,20.9,30.01,NW,316,15.0,20.0,54,0.00,,,0.00,Wunderground v.1.15,2013-02-20 21:28:00,
2013-02-20 16:33:00,35.7,19.3,30.00,NW,311,19.0,19.0,51,0.00,,,0.00,Wunderground v.1.15,2013-02-20 21:33:00,
2013-02-20 16:38:00,35.7,20.7,30.01,NW,318,15.0,22.0,54,0.00,,,0.00,Wunderground v.1.15,2013-02-20 21:38:00,
2013-02-20 16:44:00,35.6,20.1,30.01,NW,309,18.0,18.0,53,0.00,,,0.00,Wunderground v.1.15,2013-02-20 21:44:00,
2013-02-20 16:49:00,35.7,22.4,30.01,NW,314,15.0,22.0,58,0.00,,,0.00,Wunderground v.1.15,2013-02-20 21:49:00,
2013-02-20 16:55:00,35.5,19.1,30.01,NW,311,17.0,18.0,51,0.00,,,0.00,Wunderground v.1.15,2013-02-20 21:55:00,
2013-02-20 17:00:00,35.4,19.9,30.02,NW,309,20.0,20.0,53,0.00,,,0.00,Wunderground v.1.15,2013-02-20 22:00:00,
2013-02-20 17:06:00,35.3,21.6,30.02,NW,316,16.0,21.0,57,0.00,,,0.00,Wunderground v.1.15,2013-02-20 22:06:00,
2013-02-20 17:11:00,35.0,23.7,30.02,NW,318,21.0,21.0,63,0.00,,,0.00,Wunderground v.1.15,2013-02-20 22:11:00,
2013-02-20 17:17:00,34.6,22.5,30.02,NNW,332,23.0,26.0,61,0.00,,,0.00,Wunderground v.1.15,2013-02-20 22:17:00,
2013-02-20 17:22:00,34.5,22.8,30.02,NW,312,21.0,22.0,62,0.00,,,0.00,Wunderground v.1.15,2013-02-20 22:22:00,
2013-02-20 17:27:00,34.3,20.2,30.02,NW,315,22.0,29.0,56,0.00,,,0.00,Wunderground v.1.15,2013-02-20 22:27:00,
2013-02-20 17:33:00,34.2,22.1,30.03,NW,310,20.0,23.0,61,0.00,,,0.00,Wunderground v.1.15,2013-02-20 22:33:00,
2013-02-20 17:38:00,34.3,21.4,30.03,NW,308,22.0,23.0,59,0.00,,,0.00,Wunderground v.1.15,2013-02-20 22:38:00,
2013-02-20 17:43:00,34.3,21.8,30.04,WNW,300,20.0,20.0,60,0.00,,,0.00,Wunderground v.1.15,2013-02-20 22:43:00,
2013-02-20 17:49:00,34.3,21.4,30.04,NW,308,16.0,22.0,59,0.00,,,0.00,Wunderground v.1.15,2013-02-20 22:49:00,
2013-02-20 17:54:00,34.0,20.3,30.04,NW,310,18.0,18.0,57,0.00,,,0.00,Wunderground v.1.15,2013-02-20 22:54:00,
2013-02-20 18:00:00,33.7,19.2,30.04,NW,316,22.0,22.0,55,0.00,,,0.00,Wunderground v.1.15,2013-02-20 23:00:00,
2013-02-20 18:05:00,33.7,22.1,30.04,NW,309,20.0,26.0,62,0.00,,,0.00,Wunderground v.1.15,2013-02-20 23:05:00,
2013-02-20 18:11:00,33.5,20.3,30.05,NW,310,21.0,21.0,58,0.00,,,0.00,Wunderground v.1.15,2013-02-20 23:11:00,
2013-02-20 18:16:00,33.5,19.5,30.05,WNW,295,19.0,27.0,56,0.00,,,0.00,Wunderground v.1.15,2013-02-20 23:16:00,
2013-02-20 18:22:00,33.5,19.5,30.05,NW,304,18.0,21.0,56,0.00,,,0.00,Wunderground v.1.15,2013-02-20 23:22:00,
2013-02-20 18:27:00,33.3,20.5,30.05,NW,319,20.0,23.0,59,0.00,,,0.00,Wunderground v.1.15,2013-02-20 23:27:00,
2013-02-20 18:33:00,33.0,21.4,30.06,WNW,295,22.0,22.0,62,0.00,,,0.00,Wunderground v.1.15,2013-02-20 23:33:00,
2013-02-20 18:38:00,32.8,20.0,30.06,NW,304,23.0,26.0,59,0.00,,,0.00,Wunderground v.1.15,2013-02-20 23:38:00,
2013-02-20 18:44:00,32.6,19.0,30.07,NW,308,17.0,22.0,57,0.00,,,0.00,Wunderground v.1.15,2013-02-20 23:44:00,
2013-02-20 18:49:00,32.5,18.9,30.07,NW,318,18.0,29.0,57,0.00,,,0.00,Wunderground v.1.15,2013-02-20 23:49:00,
2013-02-20 18:55:00,32.4,19.7,30.07,WNW,301,23.0,23.0,59,0.00,,,0.00,Wunderground v.1.15,2013-02-20 23:55:00,
2013-02-20 19:00:00,32.3,19.2,30.07,NW,318,20.0,23.0,58,0.00,,,0.00,Wunderground v.1.15,2013-02-21 00:00:00,
2013-02-20 19:06:00,32.1,18.6,30.07,NW,309,29.0,33.0,57,0.00,,,0.00,Wunderground v.1.15,2013-02-21 00:06:00,
2013-02-20 19:11:00,32.1,19.4,30.07,NW,319,28.0,28.0,59,0.00,,,0.00,Wunderground v.1.15,2013-02-21 00:11:00,
2013-02-20 19:16:00,32.0,18.5,30.08,NW,315,31.0,37.0,57,0.00,,,0.00,Wunderground v.1.15,2013-02-21 00:16:00,
2013-02-20 19:22:00,31.7,17.4,30.09,NW,312,28.0,29.0,55,0.00,,,0.00,Wunderground v.1.15,2013-02-21 00:22:00,
2013-02-20 19:27:00,31.6,18.5,30.09,NW,313,26.0,33.0,58,0.00,,,0.00,Wunderground v.1.15,2013-02-21 00:27:00,
2013-02-20 19:33:00,31.3,18.6,30.09,NW,313,25.0,25.0,59,0.00,,,0.00,Wunderground v.1.15,2013-02-21 00:33:00,
2013-02-20 19:38:00,31.1,17.2,30.09,NW,307,24.0,31.0,56,0.00,,,0.00,Wunderground v.1.15,2013-02-21 00:38:00,
2013-02-20 19:44:00,31.0,17.5,30.09,WNW,300,24.0,26.0,57,0.00,,,0.00,Wunderground v.1.15,2013-02-21 00:44:00,
2013-02-20 19:49:00,30.9,19.0,30.10,WNW,300,25.0,31.0,61,0.00,,,0.00,Wunderground v.1.15,2013-02-21 00:49:00,
2013-02-20 19:55:00,30.7,17.7,30.10,WNW,300,21.0,24.0,58,0.00,,,0.00,Wunderground v.1.15,2013-02-21 00:55:00,
2013-02-20 20:00:00,30.6,16.7,30.11,NW,309,27.0,27.0,56,0.00,,,0.00,Wunderground v.1.15,2013-02-21 01:00:00,
2013-02-20 20:05:00,30.4,17.0,30.11,WNW,295,20.0,30.0,57,0.00,,,0.00,Wunderground v.1.15,2013-02-21 01:05:00,
2013-02-20 20:11:00,30.5,17.9,30.11,WNW,294,18.0,23.0,59,0.00,,,0.00,Wunderground v.1.15,2013-02-21 01:11:00,
2013-02-20 20:16:00,30.1,17.1,30.11,WNW,294,22.0,27.0,58,0.00,,,0.00,Wunderground v.1.15,2013-02-21 01:16:00,
2013-02-20 20:22:00,30.0,15.3,30.10,WNW,295,20.0,21.0,54,0.00,,,0.00,Wunderground v.1.15,2013-02-21 01:22:00,
2013-02-20 20:27:00,29.8,16.0,30.10,WNW,298,23.0,26.0,56,0.00,,,0.00,Wunderground v.1.15,2013-02-21 01:27:00,
2013-02-20 20:33:00,30.0,17.0,30.10,WNW,302,18.0,22.0,58,0.00,,,0.00,Wunderground v.1.15,2013-02-21 01:33:00,
2013-02-20 20:38:00,29.9,18.1,30.11,WNW,300,20.0,23.0,61,0.00,,,0.00,Wunderground v.1.15,2013-02-21 01:38:00,
2013-02-20 20:43:00,29.7,15.9,30.11,WNW,301,20.0,20.0,56,0.00,,,0.00,Wunderground v.1.15,2013-02-21 01:43:00,
2013-02-20 20:49:00,29.5,16.1,30.11,WNW,291,20.0,22.0,57,0.00,,,0.00,Wunderground v.1.15,2013-02-21 01:49:00,
2013-02-20 20:54:00,29.6,16.2,30.12,WNW,290,17.0,21.0,57,0.00,,,0.00,Wunderground v.1.15,2013-02-21 01:54:00,
2013-02-20 21:00:00,29.4,14.8,30.12,WNW,300,22.0,22.0,54,0.00,,,0.00,Wunderground v.1.15,2013-02-21 02:00:00,
2013-02-20 21:05:00,29.3,14.3,30.12,WNW,293,22.0,25.0,53,0.00,,,0.00,Wunderground v.1.15,2013-02-21 02:05:00,
2013-02-20 21:11:00,29.2,13.3,30.12,WNW,291,22.0,22.0,51,0.00,,,0.00,Wunderground v.1.15,2013-02-21 02:11:00,
2013-02-20 21:16:00,29.3,15.5,30.12,WNW,293,20.0,24.0,56,0.00,,,0.00,Wunderground v.1.15,2013-02-21 02:16:00,
2013-02-20 21:21:00,29.3,15.1,30.12,NW,304,16.0,21.0,55,0.00,,,0.00,Wunderground v.1.15,2013-02-21 02:21:00,
2013-02-20 21:27:00,29.3,16.3,30.13,WNW,293,24.0,24.0,58,0.00,,,0.00,Wunderground v.1.15,2013-02-21 02:27:00,
2013-02-20 21:32:00,29.2,15.4,30.13,WNW,295,18.0,20.0,56,0.00,,,0.00,Wunderground v.1.15,2013-02-21 02:32:00,
2013-02-20 21:38:00,29.0,14.4,30.13,WNW,302,17.0,22.0,54,0.00,,,0.00,Wunderground v.1.15,2013-02-21 02:38:00,
2013-02-20 21:43:00,29.0,14.4,30.13,WNW,294,17.0,18.0,54,0.00,,,0.00,Wunderground v.1.15,2013-02-21 02:43:00,
2013-02-20 21:49:00,29.1,16.1,30.13,WNW,288,20.0,21.0,58,0.00,,,0.00,Wunderground v.1.15,2013-02-21 02:49:00,
2013-02-20 21:54:00,29.0,15.2,30.13,WNW,288,17.0,17.0,56,0.00,,,0.00,Wunderground v.1.15,2013-02-21 02:54:00,
2013-02-20 22:00:00,29.0,15.2,30.14,WNW,293,19.0,21.0,56,0.00,,,0.00,Wunderground v.1.15,2013-02-21 03:00:00,
2013-02-20 22:05:00,28.9,15.2,30.14,WNW,291,15.0,21.0,56,0.00,,,0.00,Wunderground v.1.15,2013-02-21 03:05:00,
2013-02-20 22:10:00,28.7,15.4,30.14,WNW,290,17.0,17.0,57,0.00,,,0.00,Wunderground v.1.15,2013-02-21 03:10:00,
2013-02-20 22:16:00,28.6,13.6,30.14,West,280,14.0,18.0,53,0.00,,,0.00,Wunderground v.1.15,2013-02-21 03:16:00,
2013-02-20 22:22:00,28.7,15.0,30.14,WNW,302,20.0,20.0,56,0.00,,,0.00,Wunderground v.1.15,2013-02-21 03:22:00,
2013-02-20 22:27:00,28.6,12.7,30.14,WNW,287,15.0,20.0,51,0.00,,,0.00,Wunderground v.1.15,2013-02-21 03:27:00,
2013-02-20 22:32:00,28.5,14.8,30.13,WNW,290,13.0,17.0,56,0.00,,,0.00,Wunderground v.1.15,2013-02-21 03:32:00,
2013-02-20 22:38:00,28.9,16.0,30.13,WNW,290,13.0,20.0,58,0.00,,,0.00,Wunderground v.1.15,2013-02-21 03:38:00,
2013-02-20 22:43:00,28.7,16.2,30.14,West,280,18.0,22.0,59,0.00,,,0.00,Wunderground v.1.15,2013-02-21 03:43:00,
2013-02-20 22:49:00,28.5,13.9,30.13,WNW,288,19.0,22.0,54,0.00,,,0.00,Wunderground v.1.15,2013-02-21 03:49:00,
2013-02-20 22:54:00,28.6,16.1,30.13,WNW,285,15.0,18.0,59,0.00,,,0.00,Wunderground v.1.15,2013-02-21 03:54:00,
2013-02-20 23:00:00,28.5,15.6,30.13,West,281,15.0,17.0,58,0.00,,,0.00,Wunderground v.1.15,2013-02-21 04:00:00,
2013-02-20 23:06:00,28.5,15.2,30.13,WNW,300,22.0,22.0,57,0.00,,,0.00,Wunderground v.1.15,2013-02-21 04:06:00,
2013-02-20 23:11:00,28.3,16.2,30.13,WNW,286,15.0,19.0,60,0.00,,,0.00,Wunderground v.1.15,2013-02-21 04:11:00,
2013-02-20 23:16:00,28.2,14.5,30.13,WNW,287,19.0,22.0,56,0.00,,,0.00,Wunderground v.1.15,2013-02-21 04:16:00,
2013-02-20 23:22:00,28.1,15.2,30.13,WNW,290,24.0,24.0,58,0.00,,,0.00,Wunderground v.1.15,2013-02-21 04:22:00,
2013-02-20 23:27:00,28.0,15.1,30.13,WNW,298,22.0,25.0,58,0.00,,,0.00,Wunderground v.1.15,2013-02-21 04:27:00,
2013-02-20 23:33:00,27.9,15.4,30.13,WNW,287,18.0,21.0,59,0.00,,,0.00,Wunderground v.1.15,2013-02-21 04:33:00,
2013-02-20 23:38:00,27.9,15.4,30.13,WNW,289,21.0,24.0,59,0.00,,,0.00,Wunderground v.1.15,2013-02-21 04:38:00,
2013-02-20 23:44:00,27.8,14.9,30.13,WNW,297,24.0,24.0,58,0.00,,,0.00,Wunderground v.1.15,2013-02-21 04:44:00,
2013-02-20 23:49:00,27.8,15.7,30.13,WNW,289,18.0,28.0,60,0.00,,,0.00,Wunderground v.1.15,2013-02-21 04:49:00,
2013-02-20 23:54:00,27.8,15.7,30.12,WNW,296,17.0,18.0,60,0.00,,,0.00,Wunderground v.1.15,2013-02-21 04:54:00,